sensor_id;sensor_type;location;lat;lon;timestamp;pressure;altitude;pressure_sealevel;temperature;humidity
74615;BME280;63121;51.458;-0.110;2022-11-20T00:02:15;101056.91;;;10.54;65.54
74615;BME280;63121;51.458;-0.110;2022-11-20T00:04:40;101051.78;;;10.47;65.18
74615;BME280;63121;51.458;-0.110;2022-11-20T00:07:06;101044.94;;;10.46;65.32
74615;BME280;63121;51.458;-0.110;2022-11-20T00:09:31;101045.78;;;10.48;65.62
74615;BME280;63121;51.458;-0.110;2022-11-20T00:11:56;101050.97;;;10.42;65.42
74615;BME280;63121;51.458;-0.110;2022-11-20T00:14:22;101053.53;;;10.48;65.26
74615;BME280;63121;51.458;-0.110;2022-11-20T00:16:47;101054.31;;;10.57;64.78
74615;BME280;63121;51.458;-0.110;2022-11-20T00:19:13;101043.06;;;10.66;64.84
74615;BME280;63121;51.458;-0.110;2022-11-20T00:21:38;101048.22;;;10.66;64.48
74615;BME280;63121;51.458;-0.110;2022-11-20T00:24:04;101044.84;;;10.61;64.75
74615;BME280;63121;51.458;-0.110;2022-11-20T00:26:29;101035.38;;;10.54;65.12
74615;BME280;63121;51.458;-0.110;2022-11-20T00:28:57;101028.47;;;10.62;64.51
74615;BME280;63121;51.458;-0.110;2022-11-20T00:31:23;101019.88;;;10.65;64.53
74615;BME280;63121;51.458;-0.110;2022-11-20T00:33:49;101028.47;;;10.62;64.78
74615;BME280;63121;51.458;-0.110;2022-11-20T00:36:16;101019.75;;;10.77;63.80
74615;BME280;63121;51.458;-0.110;2022-11-20T00:38:42;101022.44;;;10.65;64.06
74615;BME280;63121;51.458;-0.110;2022-11-20T00:41:10;101015.53;;;10.65;64.09
74615;BME280;63121;51.458;-0.110;2022-11-20T00:43:36;101009.56;;;10.57;64.44
74615;BME280;63121;51.458;-0.110;2022-11-20T00:46:05;101010.41;;;10.59;64.43
74615;BME280;63121;51.458;-0.110;2022-11-20T00:48:34;101004.38;;;10.60;64.05
74615;BME280;63121;51.458;-0.110;2022-11-20T00:51:03;101010.38;;;10.67;64.03
74615;BME280;63121;51.458;-0.110;2022-11-20T00:53:29;101000.91;;;10.64;63.57
74615;BME280;63121;51.458;-0.110;2022-11-20T00:55:57;100995.69;;;10.70;63.49
74615;BME280;63121;51.458;-0.110;2022-11-20T00:58:23;100998.28;;;10.69;63.46
74615;BME280;63121;51.458;-0.110;2022-11-20T01:00:49;100990.50;;;10.75;62.80
74615;BME280;63121;51.458;-0.110;2022-11-20T01:03:18;100990.53;;;10.73;62.69
74615;BME280;63121;51.458;-0.110;2022-11-20T01:05:44;100984.44;;;10.79;62.60
74615;BME280;63121;51.458;-0.110;2022-11-20T01:08:10;100986.22;;;10.75;62.26
74615;BME280;63121;51.458;-0.110;2022-11-20T01:10:36;100987.03;;;10.81;61.78
74615;BME280;63121;51.458;-0.110;2022-11-20T01:13:01;100988.72;;;10.83;61.42
74615;BME280;63121;51.458;-0.110;2022-11-20T01:15:45;100984.41;;;10.88;61.50
74615;BME280;63121;51.458;-0.110;2022-11-20T01:18:11;100980.13;;;10.83;61.15
74615;BME280;63121;51.458;-0.110;2022-11-20T01:20:36;100981.91;;;10.73;61.78
74615;BME280;63121;51.458;-0.110;2022-11-20T01:23:03;100980.16;;;10.76;62.05
74615;BME280;63121;51.458;-0.110;2022-11-20T01:25:28;100971.53;;;10.84;61.78
74615;BME280;63121;51.458;-0.110;2022-11-20T01:27:54;100962.81;;;10.94;61.51
74615;BME280;63121;51.458;-0.110;2022-11-20T01:30:19;100967.97;;;10.97;61.31
74615;BME280;63121;51.458;-0.110;2022-11-20T01:32:45;100968.81;;;10.99;61.14
74615;BME280;63121;51.458;-0.110;2022-11-20T01:35:10;100966.22;;;10.96;60.65
74615;BME280;63121;51.458;-0.110;2022-11-20T01:37:36;100959.31;;;10.98;60.42
74615;BME280;63121;51.458;-0.110;2022-11-20T01:40:01;100954.22;;;10.92;60.57
74615;BME280;63121;51.458;-0.110;2022-11-20T01:42:27;100947.31;;;10.94;60.84
74615;BME280;63121;51.458;-0.110;2022-11-20T01:48:10;100927.47;;;10.99;59.41
74615;BME280;63121;51.458;-0.110;2022-11-20T01:50:36;100928.22;;;11.12;59.07
74615;BME280;63121;51.458;-0.110;2022-11-20T01:53:05;100927.31;;;11.16;59.35
74615;BME280;63121;51.458;-0.110;2022-11-20T01:55:34;100924.72;;;11.14;58.48
74615;BME280;63121;51.458;-0.110;2022-11-20T01:58:02;100918.78;;;11.08;58.65
74615;BME280;63121;51.458;-0.110;2022-11-20T02:00:28;100909.28;;;11.10;59.09
74615;BME280;63121;51.458;-0.110;2022-11-20T02:02:56;100910.13;;;11.12;59.59
74615;BME280;63121;51.458;-0.110;2022-11-20T02:05:29;100916.97;;;11.14;59.61
74615;BME280;63121;51.458;-0.110;2022-11-20T02:07:57;100905.69;;;11.23;58.82
74615;BME280;63121;51.458;-0.110;2022-11-20T02:10:24;100910.03;;;11.21;59.11
74615;BME280;63121;51.458;-0.110;2022-11-20T02:12:50;100903.94;;;11.27;58.92
74615;BME280;63121;51.458;-0.110;2022-11-20T02:15:35;100900.59;;;11.17;58.81
74615;BME280;63121;51.458;-0.110;2022-11-20T02:18:00;100897.09;;;11.23;58.81
74615;BME280;63121;51.458;-0.110;2022-11-20T02:20:26;100894.50;;;11.24;58.86
74615;BME280;63121;51.458;-0.110;2022-11-20T02:22:57;100888.50;;;11.21;59.23
74615;BME280;63121;51.458;-0.110;2022-11-20T02:25:26;100881.53;;;11.26;58.81
74615;BME280;63121;51.458;-0.110;2022-11-20T02:27:52;100873.75;;;11.30;58.76
74615;BME280;63121;51.458;-0.110;2022-11-20T02:30:18;100871.19;;;11.26;59.91
74615;BME280;63121;51.458;-0.110;2022-11-20T02:32:44;100860.78;;;11.33;59.45
74615;BME280;63121;51.458;-0.110;2022-11-20T02:37:56;100854.75;;;11.34;60.62
74615;BME280;63121;51.458;-0.110;2022-11-20T02:40:23;100851.44;;;11.23;60.62
74615;BME280;63121;51.458;-0.110;2022-11-20T02:42:52;100848.75;;;11.31;59.78
74615;BME280;63121;51.458;-0.110;2022-11-20T02:45:18;100847.81;;;11.38;59.94
74615;BME280;63121;51.458;-0.110;2022-11-20T02:47:43;100838.28;;;11.43;59.41
74615;BME280;63121;51.458;-0.110;2022-11-20T02:50:09;100835.78;;;11.37;59.29
74615;BME280;63121;51.458;-0.110;2022-11-20T02:52:34;100834.78;;;11.46;58.89
74615;BME280;63121;51.458;-0.110;2022-11-20T02:55:00;100837.25;;;11.55;59.04
74615;BME280;63121;51.458;-0.110;2022-11-20T02:57:25;100827.88;;;11.49;58.45
74615;BME280;63121;51.458;-0.110;2022-11-20T02:59:51;100821.03;;;11.45;57.86
74615;BME280;63121;51.458;-0.110;2022-11-20T03:02:16;100823.63;;;11.44;58.10
74615;BME280;63121;51.458;-0.110;2022-11-20T03:04:42;100823.63;;;11.44;58.91
74615;BME280;63121;51.458;-0.110;2022-11-20T03:07:08;100823.56;;;11.48;58.84
74615;BME280;63121;51.458;-0.110;2022-11-20T03:09:33;100827.94;;;11.42;58.78
74615;BME280;63121;51.458;-0.110;2022-11-20T03:11:59;100817.63;;;11.40;59.46
74615;BME280;63121;51.458;-0.110;2022-11-20T03:14:24;100806.34;;;11.46;59.23
74615;BME280;63121;51.458;-0.110;2022-11-20T03:16:49;100813.13;;;11.54;59.68
74615;BME280;63121;51.458;-0.110;2022-11-20T03:19:15;100815.00;;;11.43;59.94
74615;BME280;63121;51.458;-0.110;2022-11-20T03:21:40;100810.78;;;11.36;60.09
74615;BME280;63121;51.458;-0.110;2022-11-20T03:24:06;100802.09;;;11.43;60.59
74615;BME280;63121;51.458;-0.110;2022-11-20T03:26:32;100805.47;;;11.48;60.29
74615;BME280;63121;51.458;-0.110;2022-11-20T03:29:00;100798.53;;;11.50;60.93
74615;BME280;63121;51.458;-0.110;2022-11-20T03:31:29;100795.00;;;11.57;61.22
74615;BME280;63121;51.458;-0.110;2022-11-20T03:33:56;100794.63;;;11.22;61.96
74615;BME280;63121;51.458;-0.110;2022-11-20T03:36:21;100791.00;;;11.35;62.17
74615;BME280;63121;51.458;-0.110;2022-11-20T03:38:47;100789.16;;;11.43;62.45
74615;BME280;63121;51.458;-0.110;2022-11-20T03:41:18;100788.19;;;10.82;64.11
74615;BME280;63121;51.458;-0.110;2022-11-20T03:43:51;100783.38;;;11.24;63.98
74615;BME280;63121;51.458;-0.110;2022-11-20T03:46:17;100783.31;;;11.29;64.28
74615;BME280;63121;51.458;-0.110;2022-11-20T03:48:43;100779.75;;;11.37;64.41
74615;BME280;63121;51.458;-0.110;2022-11-20T03:51:14;100776.25;;;11.43;65.10
74615;BME280;63121;51.458;-0.110;2022-11-20T03:53:41;100769.50;;;11.33;65.38
74615;BME280;63121;51.458;-0.110;2022-11-20T03:56:08;100772.19;;;11.24;66.70
74615;BME280;63121;51.458;-0.110;2022-11-20T03:58:37;100771.38;;;11.22;67.09
74615;BME280;63121;51.458;-0.110;2022-11-20T04:01:14;100771.72;;;10.92;68.48
74615;BME280;63121;51.458;-0.110;2022-11-20T04:03:41;100758.97;;;11.45;67.98
74615;BME280;63121;51.458;-0.110;2022-11-20T04:06:11;100756.03;;;11.06;69.15
74615;BME280;63121;51.458;-0.110;2022-11-20T04:08:38;100761.13;;;11.12;69.47
74615;BME280;63121;51.458;-0.110;2022-11-20T04:13:35;100746.13;;;11.41;69.08
74615;BME280;63121;51.458;-0.110;2022-11-20T04:16:00;100738.38;;;11.39;68.91
74615;BME280;63121;51.458;-0.110;2022-11-20T04:18:26;100739.22;;;11.41;68.62
74615;BME280;63121;51.458;-0.110;2022-11-20T04:20:51;100731.72;;;11.24;69.02
74615;BME280;63121;51.458;-0.110;2022-11-20T04:23:16;100738.69;;;11.17;69.50
74615;BME280;63121;51.458;-0.110;2022-11-20T04:25:42;100723.88;;;11.30;69.00
74615;BME280;63121;51.458;-0.110;2022-11-20T04:28:07;100728.06;;;11.39;69.53
74615;BME280;63121;51.458;-0.110;2022-11-20T04:30:33;100728.75;;;11.50;69.33
74615;BME280;63121;51.458;-0.110;2022-11-20T04:32:58;100726.31;;;11.38;69.75
74615;BME280;63121;51.458;-0.110;2022-11-20T04:35:23;100720.06;;;11.54;69.03
74615;BME280;63121;51.458;-0.110;2022-11-20T04:37:51;100708.41;;;11.26;69.84
74615;BME280;63121;51.458;-0.110;2022-11-20T04:40:17;100710.66;;;11.49;69.75
74615;BME280;63121;51.458;-0.110;2022-11-20T04:42:42;100708.38;;;11.30;70.21
74615;BME280;63121;51.458;-0.110;2022-11-20T04:45:08;100712.41;;;11.47;69.68
74615;BME280;63121;51.458;-0.110;2022-11-20T04:47:33;100704.22;;;11.18;70.61
74615;BME280;63121;51.458;-0.110;2022-11-20T04:49:59;100702.47;;;11.21;70.60
74615;BME280;63121;51.458;-0.110;2022-11-20T04:52:24;100706.53;;;11.38;70.50
74615;BME280;63121;51.458;-0.110;2022-11-20T04:54:50;100698.81;;;11.35;69.99
74615;BME280;63121;51.458;-0.110;2022-11-20T04:57:18;100693.53;;;11.43;70.10
74615;BME280;63121;51.458;-0.110;2022-11-20T04:59:43;100696.13;;;11.43;70.33
74615;BME280;63121;51.458;-0.110;2022-11-20T05:02:09;100685.81;;;11.40;70.51
74615;BME280;63121;51.458;-0.110;2022-11-20T05:04:34;100683.13;;;11.48;69.85
74615;BME280;63121;51.458;-0.110;2022-11-20T05:07:00;100671.88;;;11.50;70.48
74615;BME280;63121;51.458;-0.110;2022-11-20T05:09:25;100668.31;;;11.57;70.39
74615;BME280;63121;51.458;-0.110;2022-11-20T05:11:51;100659.84;;;11.48;70.34
74615;BME280;63121;51.458;-0.110;2022-11-20T05:14:16;100650.22;;;11.57;70.18
74615;BME280;63121;51.458;-0.110;2022-11-20T05:16:41;100647.69;;;11.54;70.89
74615;BME280;63121;51.458;-0.110;2022-11-20T05:19:07;100643.22;;;11.64;70.58
74615;BME280;63121;51.458;-0.110;2022-11-20T05:21:32;100645.72;;;11.69;70.41
74615;BME280;63121;51.458;-0.110;2022-11-20T05:23:58;100643.44;;;11.49;70.76
74615;BME280;63121;51.458;-0.110;2022-11-20T05:26:23;100635.31;;;11.72;70.41
74615;BME280;63121;51.458;-0.110;2022-11-20T05:28:50;100638.88;;;11.66;71.02
74615;BME280;63121;51.458;-0.110;2022-11-20T05:31:21;100635.41;;;11.66;70.60
74615;BME280;63121;51.458;-0.110;2022-11-20T05:33:46;100621.72;;;11.62;70.60
74615;BME280;63121;51.458;-0.110;2022-11-20T05:36:13;100614.63;;;11.72;70.63
74615;BME280;63121;51.458;-0.110;2022-11-20T05:38:40;100596.69;;;11.64;70.95
74615;BME280;63121;51.458;-0.110;2022-11-20T05:41:12;100604.25;;;11.73;70.58
74615;BME280;63121;51.458;-0.110;2022-11-20T05:43:39;100615.47;;;11.74;70.55
74615;BME280;63121;51.458;-0.110;2022-11-20T05:46:04;100605.06;;;11.78;70.58
74615;BME280;63121;51.458;-0.110;2022-11-20T05:48:31;100608.53;;;11.76;70.35
74615;BME280;63121;51.458;-0.110;2022-11-20T05:50:58;100610.34;;;11.71;70.95
74615;BME280;63121;51.458;-0.110;2022-11-20T05:53:24;100607.47;;;11.86;70.86
74615;BME280;63121;51.458;-0.110;2022-11-20T05:55:57;100595.41;;;11.87;70.66
74615;BME280;63121;51.458;-0.110;2022-11-20T05:58:22;100599.78;;;11.83;70.71
74615;BME280;63121;51.458;-0.110;2022-11-20T06:00:48;100598.03;;;11.85;70.44
74615;BME280;63121;51.458;-0.110;2022-11-20T06:03:13;100588.53;;;11.86;70.78
74615;BME280;63121;51.458;-0.110;2022-11-20T06:05:39;100587.63;;;11.91;70.38
74615;BME280;63121;51.458;-0.110;2022-11-20T06:08:04;100585.84;;;11.93;70.01
74615;BME280;63121;51.458;-0.110;2022-11-20T06:10:29;100580.72;;;11.89;70.22
74615;BME280;63121;51.458;-0.110;2022-11-20T06:12:57;100574.16;;;11.71;70.88
74615;BME280;63121;51.458;-0.110;2022-11-20T06:15:22;100564.50;;;11.80;70.64
74615;BME280;63121;51.458;-0.110;2022-11-20T06:17:52;100565.28;;;11.84;70.71
74615;BME280;63121;51.458;-0.110;2022-11-20T06:20:18;100566.00;;;11.94;70.54
74615;BME280;63121;51.458;-0.110;2022-11-20T06:22:43;100564.25;;;11.94;70.76
74615;BME280;63121;51.458;-0.110;2022-11-20T06:25:09;100556.38;;;12.00;70.19
74615;BME280;63121;51.458;-0.110;2022-11-20T06:27:34;100548.69;;;11.97;69.90
74615;BME280;63121;51.458;-0.110;2022-11-20T06:29:59;100552.16;;;11.95;70.06
74615;BME280;63121;51.458;-0.110;2022-11-20T06:32:25;100541.81;;;11.95;70.57
74615;BME280;63121;51.458;-0.110;2022-11-20T06:34:50;100544.38;;;11.98;70.43
74615;BME280;63121;51.458;-0.110;2022-11-20T06:37:16;100540.06;;;11.97;70.85
74615;BME280;63121;51.458;-0.110;2022-11-20T06:39:41;100535.81;;;11.94;70.70
74615;BME280;63121;51.458;-0.110;2022-11-20T06:42:06;100527.03;;;12.02;70.86
74615;BME280;63121;51.458;-0.110;2022-11-20T06:44:32;100525.13;;;12.10;70.24
74615;BME280;63121;51.458;-0.110;2022-11-20T06:46:57;100519.94;;;12.11;70.27
74615;BME280;63121;51.458;-0.110;2022-11-20T06:49:23;100516.63;;;12.05;70.75
74615;BME280;63121;51.458;-0.110;2022-11-20T06:51:48;100511.22;;;12.15;70.05
74615;BME280;63121;51.458;-0.110;2022-11-20T06:54:14;100508.88;;;12.05;70.51
74615;BME280;63121;51.458;-0.110;2022-11-20T06:56:39;100493.25;;;12.09;70.50
74615;BME280;63121;51.458;-0.110;2022-11-20T06:59:06;100495.72;;;12.14;71.00
74615;BME280;63121;51.458;-0.110;2022-11-20T07:01:31;100499.34;;;12.07;71.04
74615;BME280;63121;51.458;-0.110;2022-11-20T07:03:57;100488.09;;;12.08;71.37
74615;BME280;63121;51.458;-0.110;2022-11-20T07:06:22;100479.44;;;12.10;71.56
74615;BME280;63121;51.458;-0.110;2022-11-20T07:08:50;100484.84;;;11.99;71.29
74615;BME280;63121;51.458;-0.110;2022-11-20T07:11:16;100481.50;;;11.93;72.00
74615;BME280;63121;51.458;-0.110;2022-11-20T07:13:42;100487.34;;;12.03;72.10
74615;BME280;63121;51.458;-0.110;2022-11-20T07:16:08;100502.34;;;11.85;72.97
74615;BME280;63121;51.458;-0.110;2022-11-20T07:18:34;100517.28;;;11.21;76.42
74615;BME280;63121;51.458;-0.110;2022-11-20T07:21:01;100538.53;;;10.86;78.54
74615;BME280;63121;51.458;-0.110;2022-11-20T07:23:27;100539.06;;;10.47;78.99
74615;BME280;63121;51.458;-0.110;2022-11-20T07:25:52;100534.09;;;10.32;82.08
74615;BME280;63121;51.458;-0.110;2022-11-20T07:28:18;100535.91;;;10.22;82.68
74615;BME280;63121;51.458;-0.110;2022-11-20T07:30:49;100519.53;;;10.29;84.59
74615;BME280;63121;51.458;-0.110;2022-11-20T07:33:15;100510.03;;;10.31;84.99
74615;BME280;63121;51.458;-0.110;2022-11-20T07:35:40;100506.94;;;10.68;84.37
74615;BME280;63121;51.458;-0.110;2022-11-20T07:38:06;100514.34;;;10.90;84.18
74615;BME280;63121;51.458;-0.110;2022-11-20T07:40:31;100512.66;;;10.87;84.78
74615;BME280;63121;51.458;-0.110;2022-11-20T07:42:56;100516.03;;;10.92;84.38
74615;BME280;63121;51.458;-0.110;2022-11-20T07:45:23;100529.56;;;11.08;85.17
74615;BME280;63121;51.458;-0.110;2022-11-20T07:47:49;100525.38;;;11.01;84.38
74615;BME280;63121;51.458;-0.110;2022-11-20T07:50:15;100527.06;;;11.02;83.07
74615;BME280;63121;51.458;-0.110;2022-11-20T07:52:41;100522.81;;;10.99;83.20
74615;BME280;63121;51.458;-0.110;2022-11-20T07:55:08;100524.66;;;10.90;83.73
74615;BME280;63121;51.458;-0.110;2022-11-20T07:57:33;100521.16;;;10.94;82.35
74615;BME280;63121;51.458;-0.110;2022-11-20T07:59:59;100515.91;;;11.00;82.37
74615;BME280;63121;51.458;-0.110;2022-11-20T08:02:24;100514.25;;;10.96;82.56
74615;BME280;63121;51.458;-0.110;2022-11-20T08:04:50;100508.69;;;11.21;81.27
74615;BME280;63121;51.458;-0.110;2022-11-20T08:07:15;100513.91;;;11.17;81.06
74615;BME280;63121;51.458;-0.110;2022-11-20T08:09:40;100520.31;;;11.45;80.06
74615;BME280;63121;51.458;-0.110;2022-11-20T08:12:06;100532.50;;;11.38;79.46
74615;BME280;63121;51.458;-0.110;2022-11-20T08:14:50;100532.56;;;11.35;78.87
74615;BME280;63121;51.458;-0.110;2022-11-20T08:17:16;100540.69;;;11.12;79.18
74615;BME280;63121;51.458;-0.110;2022-11-20T08:19:41;100542.84;;;11.38;78.43
74615;BME280;63121;51.458;-0.110;2022-11-20T08:22:07;100549.19;;;11.18;78.86
74615;BME280;63121;51.458;-0.110;2022-11-20T08:24:32;100563.09;;;11.11;79.21
74615;BME280;63121;51.458;-0.110;2022-11-20T08:26:58;100565.69;;;11.10;79.21
74615;BME280;63121;51.458;-0.110;2022-11-20T08:29:25;100574.34;;;11.07;79.32
74615;BME280;63121;51.458;-0.110;2022-11-20T08:31:51;100578.28;;;10.75;80.16
74615;BME280;63121;51.458;-0.110;2022-11-20T08:34:17;100584.13;;;10.87;80.00
74615;BME280;63121;51.458;-0.110;2022-11-20T08:36:42;100581.38;;;10.99;78.76
74615;BME280;63121;51.458;-0.110;2022-11-20T08:39:11;100589.84;;;11.07;78.91
74615;BME280;63121;51.458;-0.110;2022-11-20T08:41:37;100597.28;;;10.70;78.69
74615;BME280;63121;51.458;-0.110;2022-11-20T08:44:03;100579.53;;;11.06;78.40
74615;BME280;63121;51.458;-0.110;2022-11-20T08:46:38;100586.34;;;10.49;78.90
74615;BME280;63121;51.458;-0.110;2022-11-20T08:49:06;100596.44;;;10.66;79.55
74615;BME280;63121;51.458;-0.110;2022-11-20T08:51:33;100596.44;;;10.66;78.99
74615;BME280;63121;51.458;-0.110;2022-11-20T08:53:58;100599.78;;;10.76;78.43
74615;BME280;63121;51.458;-0.110;2022-11-20T08:56:24;100607.66;;;10.65;78.10
74615;BME280;63121;51.458;-0.110;2022-11-20T08:58:50;100611.63;;;10.91;77.77
74615;BME280;63121;51.458;-0.110;2022-11-20T09:01:22;100605.88;;;11.29;77.27
74615;BME280;63121;51.458;-0.110;2022-11-20T09:03:49;100604.19;;;11.25;77.36
74615;BME280;63121;51.458;-0.110;2022-11-20T09:06:15;100626.69;;;11.20;77.28
74615;BME280;63121;51.458;-0.110;2022-11-20T09:08:41;100620.34;;;10.81;79.20
74615;BME280;63121;51.458;-0.110;2022-11-20T09:11:07;100615.47;;;11.21;76.48
74615;BME280;63121;51.458;-0.110;2022-11-20T09:13:33;100615.72;;;11.58;76.09
74615;BME280;63121;51.458;-0.110;2022-11-20T09:16:02;100601.81;;;11.66;76.00
74615;BME280;63121;51.458;-0.110;2022-11-20T09:18:29;100609.47;;;11.19;76.95
74615;BME280;63121;51.458;-0.110;2022-11-20T09:21:00;100605.88;;;11.28;76.69
74615;BME280;63121;51.458;-0.110;2022-11-20T09:23:27;100619.97;;;11.08;76.85
74615;BME280;63121;51.458;-0.110;2022-11-20T09:25:52;100606.22;;;11.06;76.69
74615;BME280;63121;51.458;-0.110;2022-11-20T09:28:20;100598.53;;;11.02;77.06
74615;BME280;63121;51.458;-0.110;2022-11-20T09:30:46;100603.69;;;11.05;76.23
74615;BME280;63121;51.458;-0.110;2022-11-20T09:33:11;100612.22;;;10.46;77.77
74615;BME280;63121;51.458;-0.110;2022-11-20T09:35:36;100611.19;;;10.58;77.88
74615;BME280;63121;51.458;-0.110;2022-11-20T09:38:06;100636.97;;;10.61;77.77
74615;BME280;63121;51.458;-0.110;2022-11-20T09:40:32;100633.13;;;10.90;77.83
74615;BME280;63121;51.458;-0.110;2022-11-20T09:43:31;100640.72;;;11.02;76.74
74615;BME280;63121;51.458;-0.110;2022-11-20T09:48:49;100638.84;;;11.13;76.33
74615;BME280;63121;51.458;-0.110;2022-11-20T09:56:23;100641.28;;;11.21;75.36
74615;BME280;63121;51.458;-0.110;2022-11-20T09:58:54;100639.25;;;10.84;76.35
74615;BME280;63121;51.458;-0.110;2022-11-20T10:01:30;100631.88;;;10.56;77.63
74615;BME280;63121;51.458;-0.110;2022-11-20T10:04:08;100619.25;;;10.98;76.81
74615;BME280;63121;51.458;-0.110;2022-11-20T10:09:32;100606.44;;;10.91;75.74
74615;BME280;63121;51.458;-0.110;2022-11-20T10:31:08;100603.25;;;11.31;74.51
74615;BME280;63121;51.458;-0.110;2022-11-20T10:33:38;100603.38;;;11.23;75.17
74615;BME280;63121;51.458;-0.110;2022-11-20T10:36:16;100605.72;;;11.38;74.02
74615;BME280;63121;51.458;-0.110;2022-11-20T10:39:07;100594.03;;;11.14;75.08
74615;BME280;63121;51.458;-0.110;2022-11-20T10:41:41;100604.81;;;11.43;73.66
74615;BME280;63121;51.458;-0.110;2022-11-20T10:44:20;100608.41;;;11.32;73.67
74615;BME280;63121;51.458;-0.110;2022-11-20T10:47:05;100617.28;;;11.14;74.15
74615;BME280;63121;51.458;-0.110;2022-11-20T10:49:32;100617.19;;;11.21;74.19
74615;BME280;63121;51.458;-0.110;2022-11-20T10:54:44;100614.69;;;11.16;73.12
74615;BME280;63121;51.458;-0.110;2022-11-20T10:57:19;100605.47;;;11.55;73.04
74615;BME280;63121;51.458;-0.110;2022-11-20T11:02:22;100604.63;;;11.53;72.13
74615;BME280;63121;51.458;-0.110;2022-11-20T11:04:52;100597.13;;;11.88;72.36
74615;BME280;63121;51.458;-0.110;2022-11-20T11:07:25;100598.47;;;11.59;71.29
74615;BME280;63121;51.458;-0.110;2022-11-20T11:09:54;100610.63;;;11.54;73.11
74615;BME280;63121;51.458;-0.110;2022-11-20T11:12:24;100606.22;;;12.10;72.76
74615;BME280;63121;51.458;-0.110;2022-11-20T11:14:52;100606.66;;;11.84;73.44
74615;BME280;63121;51.458;-0.110;2022-11-20T11:17:33;100610.56;;;12.08;71.75
74615;BME280;63121;51.458;-0.110;2022-11-20T11:20:01;100604.78;;;11.95;72.30
74615;BME280;63121;51.458;-0.110;2022-11-20T11:22:33;100602.50;;;11.75;72.66
74615;BME280;63121;51.458;-0.110;2022-11-20T11:24:59;100609.06;;;11.95;71.92
74615;BME280;63121;51.458;-0.110;2022-11-20T11:27:24;100611.19;;;12.21;72.42
74615;BME280;63121;51.458;-0.110;2022-11-20T11:30:01;100604.78;;;11.95;71.37
74615;BME280;63121;51.458;-0.110;2022-11-20T11:32:27;100609.00;;;12.45;71.85
74615;BME280;63121;51.458;-0.110;2022-11-20T11:35:01;100608.22;;;11.96;71.37
74615;BME280;63121;51.458;-0.110;2022-11-20T11:37:36;100610.88;;;11.91;71.67
74615;BME280;63121;51.458;-0.110;2022-11-20T11:40:03;100604.47;;;12.12;70.94
74615;BME280;63121;51.458;-0.110;2022-11-20T11:42:30;100612.59;;;11.91;70.82
74615;BME280;63121;51.458;-0.110;2022-11-20T11:44:59;100603.16;;;11.90;70.42
74615;BME280;63121;51.458;-0.110;2022-11-20T11:47:57;100597.31;;;12.24;70.18
74615;BME280;63121;51.458;-0.110;2022-11-20T11:50:28;100584.53;;;12.58;69.31
74615;BME280;63121;51.458;-0.110;2022-11-20T12:07:03;100560.50;;;12.09;69.05
74615;BME280;63121;51.458;-0.110;2022-11-20T12:09:41;100564.53;;;12.24;69.53
74615;BME280;63121;51.458;-0.110;2022-11-20T12:12:13;100572.19;;;12.29;67.80
74615;BME280;63121;51.458;-0.110;2022-11-20T12:14:46;100580.06;;;12.65;68.32
74615;BME280;63121;51.458;-0.110;2022-11-20T12:17:13;100576.75;;;12.59;68.02
74615;BME280;63121;51.458;-0.110;2022-11-20T12:19:40;100569.75;;;12.63;67.48
74615;BME280;63121;51.458;-0.110;2022-11-20T12:28:00;100582.19;;;12.47;67.92
74615;BME280;63121;51.458;-0.110;2022-11-20T12:30:32;100582.53;;;12.29;66.78
74615;BME280;63121;51.458;-0.110;2022-11-20T12:43:39;100587.00;;;12.64;65.39
74615;BME280;63121;51.458;-0.110;2022-11-20T12:49:04;100595.16;;;12.86;65.73
74615;BME280;63121;51.458;-0.110;2022-11-20T12:54:02;100594.84;;;12.61;65.89
74615;BME280;63121;51.458;-0.110;2022-11-20T12:56:53;100606.00;;;12.21;65.06
74615;BME280;63121;51.458;-0.110;2022-11-20T13:07:32;100595.31;;;12.38;62.77
74615;BME280;63121;51.458;-0.110;2022-11-20T13:09:59;100597.31;;;12.25;63.87
74615;BME280;63121;51.458;-0.110;2022-11-20T13:12:32;100588.88;;;12.14;63.35
74615;BME280;63121;51.458;-0.110;2022-11-20T13:15:14;100605.81;;;12.30;62.85
74615;BME280;63121;51.458;-0.110;2022-11-20T13:17:58;100606.41;;;12.45;62.97
74615;BME280;63121;51.458;-0.110;2022-11-20T13:20:24;100618.34;;;12.07;61.69
74615;BME280;63121;51.458;-0.110;2022-11-20T13:22:52;100615.59;;;12.58;61.83
74615;BME280;63121;51.458;-0.110;2022-11-20T13:27:55;100613.66;;;13.08;61.77
74615;BME280;63121;51.458;-0.110;2022-11-20T13:30:23;100608.75;;;12.57;61.55
74615;BME280;63121;51.458;-0.110;2022-11-20T13:33:04;100609.44;;;13.02;60.86
74615;BME280;63121;51.458;-0.110;2022-11-20T13:35:53;100622.50;;;12.98;60.91
74615;BME280;63121;51.458;-0.110;2022-11-20T13:38:19;100620.69;;;13.03;60.25
74615;BME280;63121;51.458;-0.110;2022-11-20T13:40:57;100626.88;;;13.35;58.89
74615;BME280;63121;51.458;-0.110;2022-11-20T13:43:41;100628.38;;;13.06;59.33
74615;BME280;63121;51.458;-0.110;2022-11-20T13:46:09;100633.69;;;13.39;59.94
74615;BME280;63121;51.458;-0.110;2022-11-20T13:48:42;100631.69;;;13.50;58.85
74615;BME280;63121;51.458;-0.110;2022-11-20T13:51:27;100634.31;;;13.11;58.92
74615;BME280;63121;51.458;-0.110;2022-11-20T13:54:14;100628.38;;;13.06;60.90
74615;BME280;63121;51.458;-0.110;2022-11-20T13:59:57;100612.06;;;12.62;60.58
74615;BME280;63121;51.458;-0.110;2022-11-20T14:02:26;100587.84;;;12.65;61.16
74615;BME280;63121;51.458;-0.110;2022-11-20T14:04:57;100573.53;;;12.87;59.96
74615;BME280;63121;51.458;-0.110;2022-11-20T14:07:27;100588.13;;;12.91;60.75
74615;BME280;63121;51.458;-0.110;2022-11-20T14:09:57;100577.66;;;12.94;60.23
74615;BME280;63121;51.458;-0.110;2022-11-20T14:12:29;100575.13;;;12.93;60.63
74615;BME280;63121;51.458;-0.110;2022-11-20T14:14:55;100582.56;;;13.07;60.57
74615;BME280;63121;51.458;-0.110;2022-11-20T14:19:59;100577.81;;;13.26;59.63
74615;BME280;63121;51.458;-0.110;2022-11-20T14:22:26;100572.38;;;13.36;60.46